Strona główna
METAR-TAF:

METAR-TAF

Lotnisko :

Warszawa, Polska

Lotnisko Chopina w Warszawie

Szerokość geograficzna: 52-10N, Długość geograficzna: 020-58E, wysokość: 106 m

Aktualna obserwacja pogody

Raport powstał 33 minut temu, godzina 01:00 UTC
Wiatr 8 kt od północ
Temperatura -12°C
Wilgotność 78%
Ciśnienie 1029 hPa
Widzialność 10 km lub więcej
Mało chmury na wysokości 3000 ft

METAR: EPWA 250100Z 01008KT 9999 FEW030 M12/M15 Q1029 R33/2///95 NOSIG

czas: 02:33 (01:33 UTC)

Prognoza

Raport powstał 2 godziny i 3 minut temu, godzina 23:30 UTC
Prognoza ważna od 25 godzina 00 UTC do 25 godzina 24 UTC
Wiatr 10 kt od północno-północny wschód
Widzialność 10 km lub więcej
Rozproszone chmury na wysokości 2000 ft

TAF: EPWA 242330Z 2500/2524 02010KT 9999 SCT020

Obserwacja i prognoza pogody dla ponad 4000 lotnisk (raport METAR i TAF).

Dostępne stacje oznaczono żółtymi i czerwonymi punktami na mapie.

Najedź kursorem aby zobaczyć nazwę stacji.

Kliknij aby zobaczyć obserwacje i prognozy pogody.

Aby zmienić mapę: kliknij na zielony przycisk z czarnym krzyżykiem, aby powiększyć; na zielony przycisk z myślnikiem, aby pomniejszyć; na zielone strzałki, aby przejść do map sąsiednich.


METAR-TAF: